Airport Name : Worland Muni

Other Name : Worland Muni

ICAO : KWRL

IATA : WRL

FAA : WRL

Latitude : 43.965714

Longitude : -107.950831

Country : United States

Local Date and Time : 25 Jun 2024 00:15

 

TAF (Terminal Aerodrome Forecast)

KWRL 250520Z 2506/2606 23006KT P6SM SKC FM251600 02010KT P6SM SKC FM260200 36015G23KT P6SM FEW120

 

METAR (METeorological Aerodrome Report)

KWRL 250553Z AUTO 00000KT 10SM CLR 20/07 A2990 RMK AO2 SLP071 T02000067 10356 20183 51024

KWRL 250453Z AUTO 26007KT 10SM CLR 21/08 A2989 RMK AO2 SLP068 T02110078

KWRL 250353Z AUTO 33007KT 10SM CLR 23/08 A2987 RMK AO2 SLP061 T02330078

KWRL 250253Z AUTO 00000KT 10SM CLR 26/08 A2982 RMK AO2 SLP046 T02610078 53019